Terminal Aerodrome Forecast
Issued by NWS

Home | Current Version | Previous Version | Text Only | Print | Product List | Glossary On
Versions: 1 2 3 4 5 6 7 8 9 10 11 12 13 14 15 16 17 18 19
000
FTUS43 KDVN 291100 CCA
TAFBRL
TAF COR
KBRL 291126Z 2912/3012 32005KT P6SM SKC
      TEMPO 2912/2913 1SM BR SCT004
     FM291700 32008KT P6SM SCT050
     FM300100 28004KT P6SM SKC=

USA.gov is the U.S. government's official web portal to all federal, state and local government web resources and services.